Observation data for Plains on 08/11/2019      Previous  Date       Current Mesonet Observations  Soil Data  Daily Summary Page  Observations in Plain Language
KPPS 110500Z 14008KT 29/16 A3003 RMK A01 T02880160  RH  048%=      5-min Rain = 0
KPPS 110505Z 15008KT 29/16 A3003 RMK A01 T02870159  RH  048%=      5-min Rain = 0
KPPS 110510Z 15008KT 29/16 A3003 RMK A01 T02880159  RH  048%=      5-min Rain = 0
KPPS 110515Z 16008KT 29/16 A3003 RMK A01 T02890157  RH  047%=      5-min Rain = 0
KPPS 110520Z 16009KT 29/16 A3003 RMK A01 T02900156  RH  046%=      5-min Rain = 0
KPPS 110525Z 16009KT 29/16 A3003 RMK A01 T02890155  RH  046%=      5-min Rain = 0
KPPS 110530Z 16010KT 29/15 A3003 RMK A01 T02900154  RH  046%=      5-min Rain = 0
KPPS 110535Z 17009KT 29/15 A3003 RMK A01 T02900154  RH  046%=      5-min Rain = 0
KPPS 110540Z 16009KT 29/15 A3003 RMK A01 T02880153  RH  046%=      5-min Rain = 0
KPPS 110545Z 16009KT 29/15 A3003 RMK A01 T02860153  RH  046%=      5-min Rain = 0
KPPS 110550Z 16010KT 29/15 A3003 RMK A01 T02850152  RH  046%=      5-min Rain = 0
KPPS 110555Z 17009KT 28/15 A3003 RMK A01 T02840152  RH  047%=      5-min Rain = 0
KPPS 110600Z 17009KT 28/15 A3003 RMK A01 T02830151  RH  047%=      5-min Rain = 0
KPPS 110605Z 17009KT 28/15 A3003 RMK A01 T02810151  RH  047%=      5-min Rain = 0
KPPS 110610Z 17008KT 28/15 A3004 RMK A01 T02790150  RH  047%=      5-min Rain = 0
KPPS 110615Z 17008KT 28/15 A3004 RMK A01 T02780149  RH  047%=      5-min Rain = 0
KPPS 110620Z 17007KT 28/15 A3004 RMK A01 T02780149  RH  048%=      5-min Rain = 0
KPPS 110625Z 17007KT 28/15 A3004 RMK A01 T02760149  RH  048%=      5-min Rain = 0
KPPS 110630Z 16007KT 27/15 A3004 RMK A01 T02730149  RH  049%=      5-min Rain = 0
KPPS 110635Z 16007KT 27/15 A3004 RMK A01 T02720149  RH  049%=      5-min Rain = 0
KPPS 110640Z 17007KT 27/15 A3004 RMK A01 T02700149  RH  050%=      5-min Rain = 0
KPPS 110645Z 17007KT 27/15 A3004 RMK A01 T02700148  RH  049%=      5-min Rain = 0
KPPS 110650Z 17007KT 27/15 A3004 RMK A01 T02700148  RH  049%=      5-min Rain = 0
KPPS 110655Z 17007KT 27/15 A3004 RMK A01 T02700147  RH  049%=      5-min Rain = 0
KPPS 110700Z 17007KT 27/15 A3004 RMK A01 T02700146  RH  049%=      5-min Rain = 0
KPPS 110705Z 17007KT 27/15 A3004 RMK A01 T02690146  RH  049%=      5-min Rain = 0
KPPS 110710Z 17007KT 27/15 A3004 RMK A01 T02670146  RH  049%=      5-min Rain = 0
KPPS 110715Z 17006KT 27/15 A3004 RMK A01 T02660145  RH  050%=      5-min Rain = 0
KPPS 110720Z 18006KT 26/15 A3004 RMK A01 T02640145  RH  050%=      5-min Rain = 0
KPPS 110725Z 18006KT 26/15 A3004 RMK A01 T02620145  RH  051%=      5-min Rain = 0
KPPS 110730Z 18006KT 26/15 A3004 RMK A01 T02600145  RH  051%=      5-min Rain = 0
KPPS 110735Z 18006KT 26/15 A3004 RMK A01 T02590145  RH  052%=      5-min Rain = 0
KPPS 110740Z 18007KT 26/15 A3004 RMK A01 T02590145  RH  052%=      5-min Rain = 0
KPPS 110745Z 18007KT 26/15 A3004 RMK A01 T02580145  RH  052%=      5-min Rain = 0
KPPS 110750Z 18006KT 26/15 A3004 RMK A01 T02570145  RH  052%=      5-min Rain = 0
KPPS 110755Z 18006KT 26/15 A3004 RMK A01 T02550146  RH  053%=      5-min Rain = 0
KPPS 110800Z 18005KT 25/15 A3005 RMK A01 T02520146  RH  054%=      5-min Rain = 0
KPPS 110805Z 19005KT 25/15 A3005 RMK A01 T02500146  RH  055%=      5-min Rain = 0
KPPS 110810Z 18005KT 25/15 A3005 RMK A01 T02480145  RH  055%=      5-min Rain = 0
KPPS 110815Z 18006KT 25/15 A3005 RMK A01 T02460146  RH  056%=      5-min Rain = 0
KPPS 110820Z 17006KT 25/15 A3005 RMK A01 T02450146  RH  056%=      5-min Rain = 0
KPPS 110825Z 18006KT 24/15 A3005 RMK A01 T02440146  RH  057%=      5-min Rain = 0
KPPS 110830Z 18007KT 24/15 A3005 RMK A01 T02430146  RH  057%=      5-min Rain = 0
KPPS 110835Z 18006KT 24/15 A3004 RMK A01 T02430146  RH  057%=      5-min Rain = 0
KPPS 110840Z 18005KT 24/15 A3004 RMK A01 T02420146  RH  058%=      5-min Rain = 0
KPPS 110845Z 17005KT 24/15 A3005 RMK A01 T02420146  RH  058%=      5-min Rain = 0
KPPS 110850Z 17005KT 24/15 A3005 RMK A01 T02410146  RH  058%=      5-min Rain = 0
KPPS 110855Z 17004KT 24/15 A3005 RMK A01 T02400146  RH  058%=      5-min Rain = 0
KPPS 110900Z 17004KT 24/15 A3005 RMK A01 T02390146  RH  058%=      5-min Rain = 0
KPPS 110905Z 18003KT 24/15 A3005 RMK A01 T02390146  RH  058%=      5-min Rain = 0
KPPS 110910Z 17003KT 24/15 A3005 RMK A01 T02400146  RH  058%=      5-min Rain = 0
KPPS 110915Z 16003KT 24/15 A3005 RMK A01 T02400146  RH  058%=      5-min Rain = 0
KPPS 110920Z 16004KT 24/15 A3005 RMK A01 T02400146  RH  058%=      5-min Rain = 0
KPPS 110925Z 17004KT 24/15 A3005 RMK A01 T02400146  RH  058%=      5-min Rain = 0
KPPS 110930Z 17004KT 24/15 A3005 RMK A01 T02400146  RH  058%=      5-min Rain = 0
KPPS 110935Z 16004KT 24/15 A3005 RMK A01 T02390145  RH  058%=      5-min Rain = 0
KPPS 110940Z 16004KT 23/15 A3005 RMK A01 T02340145  RH  060%=      5-min Rain = 0
KPPS 110945Z 15005KT 23/15 A3005 RMK A01 T02330145  RH  061%=      5-min Rain = 0
KPPS 110950Z 15004KT 23/15 A3005 RMK A01 T02320145  RH  061%=      5-min Rain = 0
KPPS 110955Z 15004KT 23/15 A3005 RMK A01 T02320145  RH  061%=      5-min Rain = 0
KPPS 111000Z 16003KT 23/15 A3005 RMK A01 T02330145  RH  060%=      5-min Rain = 0
KPPS 111005Z 16003KT 23/15 A3005 RMK A01 T02340146  RH  060%=      5-min Rain = 0
KPPS 111010Z 18003KT 24/15 A3005 RMK A01 T02370146  RH  059%=      5-min Rain = 0
KPPS 111015Z 18003KT 24/15 A3005 RMK A01 T02390146  RH  058%=      5-min Rain = 0
KPPS 111020Z 17003KT 24/15 A3005 RMK A01 T02400146  RH  058%=      5-min Rain = 0
KPPS 111025Z 17003KT 24/15 A3005 RMK A01 T02390146  RH  058%=      5-min Rain = 0
KPPS 111030Z 16003KT 24/15 A3004 RMK A01 T02390145  RH  058%=      5-min Rain = 0
KPPS 111035Z 16004KT 24/14 A3004 RMK A01 T02390144  RH  058%=      5-min Rain = 0
KPPS 111040Z 16005KT 24/14 A3004 RMK A01 T02370142  RH  058%=      5-min Rain = 0
KPPS 111045Z 16006KT 24/14 A3004 RMK A01 T02360142  RH  058%=      5-min Rain = 0
KPPS 111050Z 16006KT 24/14 A3004 RMK A01 T02350141  RH  058%=      5-min Rain = 0
KPPS 111055Z 16006KT 24/14 A3004 RMK A01 T02350140  RH  058%=      5-min Rain = 0
KPPS 111100Z 15006KT 23/14 A3004 RMK A01 T02330140  RH  059%=      5-min Rain = 0
KPPS 111105Z 15006KT 23/14 A3004 RMK A01 T02290140  RH  060%=      5-min Rain = 0
KPPS 111110Z 15006KT 23/14 A3004 RMK A01 T02280139  RH  060%=      5-min Rain = 0
KPPS 111115Z 15006KT 23/14 A3004 RMK A01 T02280138  RH  059%=      5-min Rain = 0
KPPS 111120Z 15006KT 23/14 A3004 RMK A01 T02280137  RH  059%=      5-min Rain = 0
KPPS 111125Z 15007KT 23/14 A3004 RMK A01 T02280136  RH  058%=      5-min Rain = 0
KPPS 111130Z 15007KT 23/13 A3004 RMK A01 T02300134  RH  057%=      5-min Rain = 0
KPPS 111135Z 15007KT 23/13 A3005 RMK A01 T02330132  RH  055%=      5-min Rain = 0
KPPS 111140Z 14006KT 23/13 A3005 RMK A01 T02300132  RH  056%=      5-min Rain = 0
KPPS 111145Z 14006KT 23/13 A3005 RMK A01 T02270132  RH  057%=      5-min Rain = 0
KPPS 111150Z 14006KT 23/13 A3005 RMK A01 T02260132  RH  057%=      5-min Rain = 0
KPPS 111155Z 14006KT 23/13 A3005 RMK A01 T02250132  RH  058%=      5-min Rain = 0
KPPS 111200Z 14006KT 23/13 A3005 RMK A01 T02250131  RH  058%=      5-min Rain = 0
KPPS 111205Z 15007KT 23/13 A3005 RMK A01 T02260131  RH  057%=      5-min Rain = 0
KPPS 111210Z 15007KT 23/13 A3005 RMK A01 T02270131  RH  057%=      5-min Rain = 0
KPPS 111215Z 15007KT 23/13 A3006 RMK A01 T02290130  RH  056%=      5-min Rain = 0
KPPS 111220Z 15006KT 23/13 A3006 RMK A01 T02300130  RH  055%=      5-min Rain = 0
KPPS 111225Z 14006KT 23/13 A3006 RMK A01 T02290130  RH  056%=      5-min Rain = 0
KPPS 111230Z 14007KT 23/13 A3006 RMK A01 T02290131  RH  056%=      5-min Rain = 0
KPPS 111235Z 14007KT 23/13 A3006 RMK A01 T02310131  RH  055%=      5-min Rain = 0
KPPS 111240Z 14008KT 23/13 A3007 RMK A01 T02320132  RH  055%=      5-min Rain = 0
KPPS 111245Z 14007KT 23/13 A3007 RMK A01 T02330133  RH  056%=      5-min Rain = 0
KPPS 111250Z 15007KT 23/13 A3007 RMK A01 T02340133  RH  055%=      5-min Rain = 0
KPPS 111255Z 15007KT 24/13 A3008 RMK A01 T02350133  RH  055%=      5-min Rain = 0
KPPS 111300Z 14007KT 24/13 A3008 RMK A01 T02360134  RH  055%=      5-min Rain = 0
KPPS 111305Z 15007KT 24/13 A3008 RMK A01 T02380134  RH  055%=      5-min Rain = 0
KPPS 111310Z 15007KT 24/13 A3008 RMK A01 T02390134  RH  054%=      5-min Rain = 0
KPPS 111315Z 16007KT 24/13 A3008 RMK A01 T02420134  RH  053%=      5-min Rain = 0
KPPS 111320Z 16006KT 25/14 A3008 RMK A01 T02460135  RH  052%=      5-min Rain = 0
KPPS 111325Z 16007KT 25/13 A3008 RMK A01 T02490134  RH  051%=      5-min Rain = 0
KPPS 111330Z 16007KT 25/13 A3008 RMK A01 T02520134  RH  050%=      5-min Rain = 0
KPPS 111335Z 16007KT 26/13 A3008 RMK A01 T02560134  RH  049%=      5-min Rain = 0
KPPS 111340Z 17008KT 26/13 A3008 RMK A01 T02600133  RH  047%=      5-min Rain = 0
KPPS 111345Z 16009KT 26/13 A3008 RMK A01 T02640133  RH  046%=      5-min Rain = 0
KPPS 111350Z 17009KT 27/13 A3008 RMK A01 T02660133  RH  045%=      5-min Rain = 0
KPPS 111355Z 17009KT 27/13 A3008 RMK A01 T02680133  RH  045%=      5-min Rain = 0
KPPS 111400Z 19009KT 27/13 A3009 RMK A01 T02690133  RH  045%=      5-min Rain = 0
KPPS 111405Z 19009KT 27/13 A3009 RMK A01 T02710133  RH  044%=      5-min Rain = 0
KPPS 111410Z 18010KT 27/13 A3009 RMK A01 T02720133  RH  044%=      5-min Rain = 0
KPPS 111415Z 17008KT 27/14 A3009 RMK A01 T02730135  RH  044%=      5-min Rain = 0
KPPS 111420Z 17010KT 28/13 A3009 RMK A01 T02770134  RH  043%=      5-min Rain = 0
KPPS 111425Z 18010KT 28/13 A3009 RMK A01 T02780133  RH  043%=      5-min Rain = 0
KPPS 111430Z 18009KT 28/13 A3009 RMK A01 T02820134  RH  042%=      5-min Rain = 0
KPPS 111435Z 18008KT 28/13 A3009 RMK A01 T02830134  RH  042%=      5-min Rain = 0
KPPS 111440Z 18009KT 28/13 A3009 RMK A01 T02830134  RH  042%=      5-min Rain = 0
KPPS 111445Z 19008KT 29/14 A3009 RMK A01 T02850135  RH  041%=      5-min Rain = 0
KPPS 111450Z 19009KT 29/14 A3009 RMK A01 T02880136  RH  041%=      5-min Rain = 0
KPPS 111455Z 19009KT 29/14 A3009 RMK A01 T02880136  RH  041%=      5-min Rain = 0
KPPS 111500Z 18009KT 29/14 A3009 RMK A01 T02880136  RH  041%=      5-min Rain = 0
KPPS 111505Z 18008KT 29/14 A3009 RMK A01 T02910137  RH  040%=      5-min Rain = 0
KPPS 111510Z 19008KT 30/14 A3009 RMK A01 T02950138  RH  040%=      5-min Rain = 0
KPPS 111515Z 20008KT 30/14 A3009 RMK A01 T02960138  RH  040%=      5-min Rain = 0
KPPS 111520Z 20007KT 30/14 A301 RMK A01 T02970139  RH  040%=      5-min Rain = 0
KPPS 111525Z 20008KT 30/14 A301 RMK A01 T02990139  RH  039%=      5-min Rain = 0
KPPS 111530Z 19007KT 30/14 A301 RMK A01 T02980139  RH  039%=      5-min Rain = 0
KPPS 111535Z 18007KT 30/14 A301 RMK A01 T03030140  RH  038%=      5-min Rain = 0
KPPS 111540Z 19007KT 30/14 A301 RMK A01 T03040139  RH  038%=      5-min Rain = 0
KPPS 111545Z 18007KT 31/14 A301 RMK A01 T03080139  RH  037%=      5-min Rain = 0
KPPS 111550Z 19007KT 31/14 A301 RMK A01 T03090139  RH  037%=      5-min Rain = 0
KPPS 111555Z 18008KT 31/14 A301 RMK A01 T03140139  RH  036%=      5-min Rain = 0
KPPS 111600Z 19007KT 32/14 A301 RMK A01 T03150139  RH  036%=      5-min Rain = 0
KPPS 111605Z 17008KT 32/14 A301 RMK A01 T03200140  RH  035%=      5-min Rain = 0
KPPS 111610Z 18008G13KT 32/14 A301 RMK A01 T03190139  RH  035%=      5-min Rain = 0
KPPS 111615Z 18007G12KT 32/14 A301 RMK A01 T03190140  RH  035%=      5-min Rain = 0
KPPS 111620Z 17007G12KT 32/14 A301 RMK A01 T03210140  RH  035%=      5-min Rain = 0
KPPS 111625Z 18009KT 32/14 A301 RMK A01 T03240140  RH  034%=      5-min Rain = 0
KPPS 111630Z 21007KT 32/14 A301 RMK A01 T03230140  RH  035%=      5-min Rain = 0
KPPS 111635Z 18008KT 32/14 A301 RMK A01 T03210140  RH  035%=      5-min Rain = 0
KPPS 111640Z 18008KT 33/14 A301 RMK A01 T03260142  RH  034%=      5-min Rain = 0
KPPS 111645Z 19008KT 33/14 A301 RMK A01 T03270142  RH  034%=      5-min Rain = 0
KPPS 111650Z 17008KT 33/14 A301 RMK A01 T03290142  RH  034%=      5-min Rain = 0
KPPS 111655Z 18008G13KT 33/14 A301 RMK A01 T03320142  RH  033%=      5-min Rain = 0
KPPS 111700Z 20008KT 33/14 A301 RMK A01 T03310143  RH  034%=      5-min Rain = 0
KPPS 111705Z 17009KT 33/14 A301 RMK A01 T03310143  RH  033%=      5-min Rain = 0
KPPS 111710Z 16009KT 34/14 A301 RMK A01 T03370143  RH  033%=      5-min Rain = 0
KPPS 111715Z 16010KT 34/14 A3009 RMK A01 T03370143  RH  032%=      5-min Rain = 0
KPPS 111720Z 15008G14KT 34/14 A3009 RMK A01 T03370142  RH  032%=      5-min Rain = 0
KPPS 111725Z 16008G13KT 34/14 A3009 RMK A01 T03380143  RH  032%=      5-min Rain = 0
KPPS 111730Z 19008KT 34/14 A3009 RMK A01 T03390143  RH  032%=      5-min Rain = 0
KPPS 111735Z 21007KT 34/14 A3009 RMK A01 T03380144  RH  033%=      5-min Rain = 0
KPPS 111740Z 17007KT 34/15 A3008 RMK A01 T03430145  RH  032%=      5-min Rain = 0
KPPS 111745Z 15010G17KT 35/15 A3008 RMK A01 T03480145  RH  031%=      5-min Rain = 0
KPPS 111750Z 15009G14KT 35/14 A3008 RMK A01 T03460144  RH  031%=      5-min Rain = 0
KPPS 111755Z 13009G16KT 35/15 A3008 RMK A01 T03500147  RH  031%=      5-min Rain = 0
KPPS 111800Z 16009KT 35/14 A3008 RMK A01 T03510144  RH  030%=      5-min Rain = 0
KPPS 111805Z 13011G16KT 35/15 A3007 RMK A01 T03500146  RH  031%=      5-min Rain = 0
KPPS 111810Z 13011G16KT 35/15 A3007 RMK A01 T03530146  RH  030%=      5-min Rain = 0
KPPS 111815Z 13010G15KT 35/15 A3007 RMK A01 T03510146  RH  031%=      5-min Rain = 0
KPPS 111820Z 14011KT 35/14 A3007 RMK A01 T03530144  RH  030%=      5-min Rain = 0
KPPS 111825Z 14010KT 35/14 A3006 RMK A01 T03530142  RH  029%=      5-min Rain = 0
KPPS 111830Z 14011KT 35/14 A3006 RMK A01 T03530141  RH  029%=      5-min Rain = 0
KPPS 111835Z 14010G15KT 35/14 A3006 RMK A01 T03520140  RH  029%=      5-min Rain = 0
KPPS 111840Z 14011KT 35/14 A3006 RMK A01 T03540141  RH  029%=      5-min Rain = 0
KPPS 111845Z 15010KT 36/14 A3005 RMK A01 T03580139  RH  028%=      5-min Rain = 0
KPPS 111850Z 13010G16KT 36/14 A3005 RMK A01 T03580138  RH  028%=      5-min Rain = 0
KPPS 111855Z 16010G17KT 36/13 A3005 RMK A01 T03590130  RH  026%=      5-min Rain = 0
KPPS 111900Z 17008G14KT 36/13 A3004 RMK A01 T03610129  RH  026%=      5-min Rain = 0
KPPS 111905Z 17009G17KT 36/13 A3004 RMK A01 T03630134  RH  027%=      5-min Rain = 0
KPPS 111910Z 13011KT 36/13 A3004 RMK A01 T03640132  RH  026%=      5-min Rain = 0
KPPS 111915Z 15010G17KT 36/13 A3004 RMK A01 T03630125  RH  025%=      5-min Rain = 0
KPPS 111920Z 15012G19KT 37/13 A3004 RMK A01 T03660127  RH  025%=      5-min Rain = 0
KPPS 111925Z 16009G14KT 36/13 A3004 RMK A01 T03630127  RH  025%=      5-min Rain = 0
KPPS 111930Z 17009G16KT 37/13 A3003 RMK A01 T03660131  RH  025%=      5-min Rain = 0
KPPS 111935Z 16011G18KT 37/13 A3003 RMK A01 T03690129  RH  025%=      5-min Rain = 0
KPPS 111940Z 16010G15KT 37/13 A3003 RMK A01 T03670129  RH  025%=      5-min Rain = 0
KPPS 111945Z 17010G15KT 37/13 A3002 RMK A01 T03700128  RH  024%=      5-min Rain = 0
KPPS 111950Z 18011G17KT 37/13 A3002 RMK A01 T03690131  RH  025%=      5-min Rain = 0
KPPS 111955Z 18010G15KT 37/14 A3002 RMK A01 T03680136  RH  026%=      5-min Rain = 0
KPPS 112000Z 17012G18KT 37/14 A3001 RMK A01 T03690137  RH  026%=      5-min Rain = 0
KPPS 112005Z 16006G13KT 37/14 A3001 RMK A01 T03670137  RH  026%=      5-min Rain = 0
KPPS 112010Z 13013KT 37/14 A3001 RMK A01 T03670137  RH  026%=      5-min Rain = 0
KPPS 112015Z 15014G23KT 37/13 A30 RMK A01 T03660134  RH  026%=      5-min Rain = 0
KPPS 112020Z 15012G17KT 37/13 A30 RMK A01 T03670134  RH  026%=      5-min Rain = 0
KPPS 112025Z 16007G15KT 36/13 A30 RMK A01 T03640133  RH  026%=      5-min Rain = 0
KPPS 112030Z 14010G16KT 37/14 A30 RMK A01 T03690136  RH  026%=      5-min Rain = 0
KPPS 112035Z 15014G20KT 37/14 A30 RMK A01 T03730135  RH  025%=      5-min Rain = 0
KPPS 112040Z 15013G20KT 37/13 A2999 RMK A01 T03730130  RH  024%=      5-min Rain = 0
KPPS 112045Z 14012KT 37/13 A2999 RMK A01 T03730134  RH  025%=      5-min Rain = 0
KPPS 112050Z 11012G19KT 37/13 A2999 RMK A01 T03690133  RH  025%=      5-min Rain = 0
KPPS 112055Z 14013G19KT 37/13 A2999 RMK A01 T03680133  RH  026%=      5-min Rain = 0
KPPS 112100Z 13014G22KT 37/13 A2999 RMK A01 T03720133  RH  025%=      5-min Rain = 0
KPPS 112105Z 16012G18KT 37/13 A2999 RMK A01 T03740134  RH  025%=      5-min Rain = 0
KPPS 112110Z 13014G20KT 37/14 A2999 RMK A01 T03720135  RH  025%=      5-min Rain = 0
KPPS 112115Z 13009G16KT 36/13 A2999 RMK A01 T03580132  RH  027%=      5-min Rain = 0
KPPS 112120Z 15013G20KT 37/14 A2999 RMK A01 T03680135  RH  026%=      5-min Rain = 0
KPPS 112125Z 16012G17KT 36/13 A2999 RMK A01 T03640133  RH  026%=      5-min Rain = 0
KPPS 112130Z 14012G17KT 37/13 A2998 RMK A01 T03730131  RH  025%=      5-min Rain = 0
KPPS 112135Z 14011G20KT 36/13 A2998 RMK A01 T03610128  RH  026%=      5-min Rain = 0
KPPS 112140Z 12013G18KT 36/13 A2998 RMK A01 T03600128  RH  026%=      5-min Rain = 0
KPPS 112145Z 14010G15KT 37/13 A2998 RMK A01 T03680127  RH  025%=      5-min Rain = 0
KPPS 112150Z 15012G21KT 37/13 A2998 RMK A01 T03710127  RH  024%=      5-min Rain = 0
KPPS 112155Z 15011G17KT 37/13 A2998 RMK A01 T03660126  RH  025%=      5-min Rain = 0
KPPS 112200Z 15011G19KT 36/13 A2998 RMK A01 T03630127  RH  025%=      5-min Rain = 0
KPPS 112205Z 15013G20KT 37/13 A2998 RMK A01 T03710126  RH  024%=      5-min Rain = 0
KPPS 112210Z 15013G20KT 37/13 A2997 RMK A01 T03730125  RH  023%=      5-min Rain = 0
KPPS 112215Z 15015G22KT 37/12 A2997 RMK A01 T03670122  RH  024%=      5-min Rain = 0
KPPS 112220Z 14014G21KT 36/12 A2997 RMK A01 T03610121  RH  025%=      5-min Rain = 0
KPPS 112225Z 12013G18KT 36/12 A2997 RMK A01 T03600121  RH  025%=      5-min Rain = 0
KPPS 112230Z 13011G17KT 37/12 A2997 RMK A01 T03670120  RH  023%=      5-min Rain = 0
KPPS 112235Z 12015G22KT 37/12 A2996 RMK A01 T03660120  RH  024%=      5-min Rain = 0
KPPS 112240Z 13013G19KT 37/12 A2996 RMK A01 T03650119  RH  024%=      5-min Rain = 0
KPPS 112245Z 14014G19KT 36/12 A2996 RMK A01 T03620118  RH  024%=      5-min Rain = 0
KPPS 112250Z 14012G23KT 37/12 A2996 RMK A01 T03680117  RH  023%=      5-min Rain = 0
KPPS 112255Z 13015G24KT 37/12 A2995 RMK A01 T03700118  RH  023%=      5-min Rain = 0
KPPS 112300Z 13016G21KT 37/12 A2995 RMK A01 T03710118  RH  023%=      5-min Rain = 0
KPPS 112305Z 15016G23KT 37/12 A2995 RMK A01 T03690117  RH  023%=      5-min Rain = 0
KPPS 112310Z 15017G23KT 37/12 A2995 RMK A01 T03690115  RH  022%=      5-min Rain = 0
KPPS 112315Z 16015KT 37/12 A2995 RMK A01 T03670116  RH  023%=      5-min Rain = 0
KPPS 112320Z 13012G21KT 37/12 A2995 RMK A01 T03690116  RH  023%=      5-min Rain = 0
KPPS 112325Z 13015KT 37/12 A2995 RMK A01 T03690116  RH  023%=      5-min Rain = 0
KPPS 112330Z 13016G21KT 36/12 A2995 RMK A01 T03620115  RH  023%=      5-min Rain = 0
KPPS 112335Z 13015G21KT 36/11 A2996 RMK A01 T03590114  RH  024%=      5-min Rain = 0
KPPS 112340Z 15016G21KT 36/11 A2996 RMK A01 T03620114  RH  023%=      5-min Rain = 0
KPPS 112345Z 15014G19KT 35/11 A2996 RMK A01 T03540113  RH  024%=      5-min Rain = 0
KPPS 112350Z 15014KT 35/11 A2996 RMK A01 T03510112  RH  024%=      5-min Rain = 0
KPPS 112355Z 13010G15KT 35/11 A2996 RMK A01 T03500112  RH  025%=      5-min Rain = 0
KPPS 120000Z 15011KT 35/11 A2997 RMK A01 T03490112  RH  025%=      5-min Rain = 0
KPPS 120005Z 25011G16KT 33/13 A2998 RMK A01 T03330130  RH  031%=      5-min Rain = 0
KPPS 120010Z 26011KT 30/14 A2998 RMK A01 T03000143  RH  040%=      5-min Rain = 0
KPPS 120015Z 26012G19KT 29/15 A2998 RMK A01 T02920145  RH  042%=      5-min Rain = 0
KPPS 120020Z 25007G12KT 29/15 A2998 RMK A01 T02910146  RH  043%=      5-min Rain = 0
KPPS 120025Z 27013KT 30/14 A2998 RMK A01 T02950141  RH  040%=      5-min Rain = 0
KPPS 120030Z 27011G17KT 30/14 A2998 RMK A01 T02990137  RH  039%=      5-min Rain = 0
KPPS 120035Z 27013KT 30/14 A2998 RMK A01 T02990136  RH  038%=      5-min Rain = 0
KPPS 120040Z 28010KT 30/14 A2998 RMK A01 T02990137  RH  039%=      5-min Rain = 0
KPPS 120045Z 29010KT 30/14 A2998 RMK A01 T02980137  RH  039%=      5-min Rain = 0
KPPS 120050Z 30008KT 30/14 A2999 RMK A01 T02970136  RH  039%=      5-min Rain = 0
KPPS 120055Z 31009KT 30/14 A2999 RMK A01 T02970136  RH  039%=      5-min Rain = 0
KPPS 120100Z 31011KT 30/14 A2999 RMK A01 T02950140  RH  041%=      5-min Rain = 0
KPPS 120105Z 30010KT 29/15 A2999 RMK A01 T02890146  RH  044%=      5-min Rain = 0
KPPS 120110Z 30009G14KT 29/15 A30 RMK A01 T02880147  RH  044%=      5-min Rain = 0
KPPS 120115Z 31008G13KT 29/15 A30 RMK A01 T02870145  RH  044%=      5-min Rain = 0
KPPS 120120Z 32009KT 29/14 A30 RMK A01 T02870144  RH  044%=      5-min Rain = 0
KPPS 120125Z 33010KT 28/15 A30 RMK A01 T02830148  RH  046%=      5-min Rain = 0
KPPS 120130Z 33009KT 28/15 A30 RMK A01 T02790150  RH  047%=      5-min Rain = 0
KPPS 120135Z 33009KT 28/15 A30 RMK A01 T02770152  RH  049%=      5-min Rain = 0
KPPS 120140Z 35008KT 28/15 A30 RMK A01 T02750153  RH  050%=      5-min Rain = 0
KPPS 120145Z 35009KT 27/15 A30 RMK A01 T02710154  RH  051%=      5-min Rain = 0
KPPS 120150Z 35009KT 27/15 A3001 RMK A01 T02690152  RH  051%=      5-min Rain = 0
KPPS 120155Z 35009KT 27/15 A3001 RMK A01 T02690150  RH  050%=      5-min Rain = 0
KPPS 120200Z 35007KT 27/15 A3001 RMK A01 T02690149  RH  050%=      5-min Rain = 0
KPPS 120205Z 34006KT 27/15 A3001 RMK A01 T02690148  RH  049%=      5-min Rain = 0
KPPS 120210Z 35006KT 27/15 A3001 RMK A01 T02690148  RH  049%=      5-min Rain = 0
KPPS 120215Z 00006KT 27/15 A30 RMK A01 T02690147  RH  049%=      5-min Rain = 0
KPPS 120220Z 02006KT 27/15 A30 RMK A01 T02700146  RH  049%=      5-min Rain = 0
KPPS 120225Z 03007KT 27/15 A30 RMK A01 T02700146  RH  049%=      5-min Rain = 0
KPPS 120230Z 03007KT 27/15 A30 RMK A01 T02690146  RH  049%=      5-min Rain = 0
KPPS 120235Z 03008KT 27/15 A30 RMK A01 T02680145  RH  049%=      5-min Rain = 0
KPPS 120240Z 03008KT 27/15 A3001 RMK A01 T02680145  RH  049%=      5-min Rain = 0
KPPS 120245Z 03009KT 27/14 A3001 RMK A01 T02660144  RH  049%=      5-min Rain = 0
KPPS 120250Z 04007KT 27/14 A3001 RMK A01 T02650143  RH  049%=      5-min Rain = 0
KPPS 120255Z 04009KT 26/14 A3002 RMK A01 T02640143  RH  049%=      5-min Rain = 0
KPPS 120300Z 04008KT 26/14 A3002 RMK A01 T02630142  RH  049%=      5-min Rain = 0
KPPS 120305Z 03008KT 26/14 A3002 RMK A01 T02620141  RH  049%=      5-min Rain = 0
KPPS 120310Z 03008KT 26/14 A3003 RMK A01 T02620141  RH  050%=      5-min Rain = 0
KPPS 120315Z 03009KT 26/14 A3003 RMK A01 T02600143  RH  051%=      5-min Rain = 0
KPPS 120320Z 03008KT 26/14 A3003 RMK A01 T02580144  RH  051%=      5-min Rain = 0
KPPS 120325Z 04008KT 26/14 A3003 RMK A01 T02570144  RH  052%=      5-min Rain = 0
KPPS 120330Z 05008KT 26/14 A3003 RMK A01 T02560144  RH  052%=      5-min Rain = 0
KPPS 120335Z 05008KT 26/14 A3003 RMK A01 T02550144  RH  052%=      5-min Rain = 0
KPPS 120340Z 05008KT 25/14 A3003 RMK A01 T02540144  RH  053%=      5-min Rain = 0
KPPS 120345Z 05009KT 25/14 A3003 RMK A01 T02520144  RH  053%=      5-min Rain = 0
KPPS 120350Z 05009KT 25/15 A3003 RMK A01 T02500145  RH  054%=      5-min Rain = 0
KPPS 120355Z 05009KT 25/15 A3003 RMK A01 T02490145  RH  055%=      5-min Rain = 0
KPPS 120400Z 06009KT 25/14 A3003 RMK A01 T02470144  RH  055%=      5-min Rain = 0
KPPS 120405Z 05008KT 25/14 A3003 RMK A01 T02450144  RH  056%=      5-min Rain = 0
KPPS 120410Z 05008KT 25/14 A3003 RMK A01 T02450144  RH  056%=      5-min Rain = 0
KPPS 120415Z 05007KT 24/14 A3003 RMK A01 T02440144  RH  056%=      5-min Rain = 0
KPPS 120420Z 05007KT 24/15 A3003 RMK A01 T02420145  RH  057%=      5-min Rain = 0
KPPS 120425Z 06007KT 24/15 A3003 RMK A01 T02410145  RH  057%=      5-min Rain = 0
KPPS 120430Z 05007KT 24/15 A3003 RMK A01 T02410145  RH  057%=      5-min Rain = 0
KPPS 120435Z 05005KT 24/15 A3003 RMK A01 T02400146  RH  058%=      5-min Rain = 0
KPPS 120440Z 30008G15KT 24/15 A3005 RMK A01 T02410146  RH  058%=      5-min Rain = 0
KPPS 120445Z 30010G17KT 25/14 A3005 RMK A01 T02480144  RH  055%=      5-min Rain = 0
KPPS 120450Z 35008KT 26/14 A3005 RMK A01 T02560140  RH  051%=      5-min Rain = 0
KPPS 120455Z 01005KT 26/14 A3004 RMK A01 T02600139  RH  049%=      5-min Rain = 0

Page generated in 0.0209 seconds.